Archival Weather

Nairobi Jkia

Nairobi Jkia, Kenya (HKJK)

Report from: Sunday, March 19, 2023 10:00 AM EAT
Current time: Monday, June 17, 2024 1:55 PM EAT

Current weather – Weather history – Daily summaries
Weather forecast

Temperature21.0°C (69.8°F)
Dew point14.0°C (57.2°F)
Winds 11 kts (5.7 m/s, 12.7 mph) Northeast (50°)
Visibility6.2 mi. (10 km)
Clouds Scattered clouds 2,200 ft. (671 m)
Ceiling: Broken clouds 24,000 ft. (7,315 m)
Altimeter30.21 in.Hg (1023 mB)
Relative humidity64 %
Density altitude595 ft. (181 m)
Remarks No significant changes expected in the next two hours
Flight conditions Visual Meteorological Conditions
Raw dataHKJK 190700Z 05011KT 9999 SCT022 BKN240 21/14 Q1023 NOSIG
An error has occurred. This application may no longer respond until reloaded. Reload 🗙